Time;durP1;ratioP1;P1;durP2;ratioP2;P2;SDS_P1;SDS_P2;PMS_P1;PMS_P2;Temp;Humidity;BMP_temperature;BMP_pressure;BME280_temperature;BME280_humidity;BME280_pressure;Samples;Min_cycle;Max_cycle;Signal;HPM_P1;HPM_P2
2022/07/29 00:00:36;;;;;;;6.95;1.45;;;19.10;75.50;;;;;;4360359;28;10001108;-79
2022/07/29 00:03:02;;;;;;;6.53;1.48;;;19.00;75.20;;;;;;5056187;28;20045;-79
2022/07/29 00:05:28;;;;;;;4.65;1.58;;;19.00;76.00;;;;;;5054635;28;20429;-79
2022/07/29 00:07:54;;;;;;;6.13;1.40;;;19.00;75.70;;;;;;5045414;28;20017;-79
2022/07/29 00:10:20;;;;;;;3.88;1.45;;;19.00;76.90;;;;;;5049748;28;20075;-79
2022/07/29 00:12:45;;;;;;;6.53;1.60;;;19.00;78.60;;;;;;5054818;28;20032;-79
2022/07/29 00:15:12;;;;;;;2.85;1.30;;;19.00;77.50;;;;;;5057801;28;20020;-79
2022/07/29 00:17:37;;;;;;;4.78;1.58;;;18.90;77.80;;;;;;5063052;28;20412;-79
2022/07/29 00:20:04;;;;;;;7.20;1.60;;;18.90;78.50;;;;;;5045781;28;20017;-79
2022/07/29 00:22:29;;;;;;;7.68;1.58;;;18.90;77.60;;;;;;5054375;28;20033;-79
2022/07/29 00:24:55;;;;;;;4.68;1.40;;;18.90;75.90;;;;;;5054002;28;20024;-79
2022/07/29 00:27:21;;;;;;;5.68;1.50;;;18.90;76.20;;;;;;5069314;28;20111;-79
2022/07/29 00:29:47;;;;;;;9.10;2.13;;;18.80;74.90;;;;;;5050763;28;20427;-79
2022/07/29 00:32:12;;;;;;;9.45;1.70;;;18.80;74.60;;;;;;5076015;28;20107;-80
2022/07/29 00:37:22;;;;;;;4.13;1.30;;;18.80;74.50;;;;;;5059578;28;20141;-79
2022/07/29 00:39:48;;;;;;;5.65;1.60;;;18.80;75.00;;;;;;5054665;28;20495;-79
2022/07/29 00:42:13;;;;;;;3.72;1.35;;;18.80;74.90;;;;;;5065525;28;20680;-79
2022/07/29 00:44:40;;;;;;;6.47;1.48;;;18.80;75.10;;;;;;5064166;28;20113;-80
2022/07/29 00:47:08;;;;;;;4.90;1.80;;;18.80;74.80;;;;;;5054418;28;20072;-80
2022/07/29 00:49:34;;;;;;;4.57;1.50;;;18.80;74.80;;;;;;5072172;28;20101;-80
2022/07/29 00:52:04;;;;;;;7.32;1.42;;;18.80;74.90;;;;;;5050336;28;20039;-80
2022/07/29 00:54:30;;;;;;;4.50;1.42;;;18.80;75.20;;;;;;5063130;28;20036;-79
2022/07/29 00:56:59;;;;;;;8.43;1.80;;;18.80;75.50;;;;;;5064807;28;20032;-79
2022/07/29 00:59:28;;;;;;;5.78;1.55;;;18.80;75.70;;;;;;5064388;28;20107;-79
2022/07/29 01:01:54;;;;;;;3.88;1.30;;;18.70;77.10;;;;;;5062357;28;20064;-79
2022/07/29 01:04:21;;;;;;;6.32;1.52;;;18.70;78.90;;;;;;5049577;28;20029;-80
2022/07/29 01:06:48;;;;;;;7.72;1.20;;;18.70;78.00;;;;;;5059197;28;20137;-79
2022/07/29 01:09:15;;;;;;;9.02;1.48;;;18.50;72.70;;;;;;5056898;28;20025;-79
2022/07/29 01:11:42;;;;;;;5.15;1.30;;;18.50;72.50;;;;;;5069087;28;20032;-80
2022/07/29 01:14:09;;;;;;;6.15;1.20;;;18.50;72.80;;;;;;5063034;28;20064;-80
2022/07/29 01:17:01;;;;;;;6.50;1.30;;;18.50;73.10;;;;;;5061923;28;20187;-79
2022/07/29 01:19:41;;;;;;;5.15;1.45;;;18.50;74.00;;;;;;5049322;28;20110;-79
2022/07/29 01:22:35;;;;;;;5.75;1.50;;;18.50;74.90;;;;;;5057518;28;20033;-79
2022/07/29 01:25:17;;;;;;;6.35;1.35;;;18.40;75.00;;;;;;5060903;28;20093;-79
2022/07/29 01:28:02;;;;;;;5.82;1.40;;;18.40;75.60;;;;;;5071544;28;20044;-79
2022/07/29 01:30:30;;;;;;;6.32;1.42;;;18.40;76.90;;;;;;5050668;28;20040;-79
2022/07/29 01:33:01;;;;;;;6.68;1.40;;;18.40;77.20;;;;;;5059950;28;20484;-79
2022/07/29 01:35:33;;;;;;;2.80;1.20;;;18.40;77.60;;;;;;5066339;28;20383;-79
2022/07/29 01:38:12;;;;;;;5.22;1.23;;;18.40;77.40;;;;;;5066087;28;20051;-79
2022/07/29 01:40:46;;;;;;;6.53;1.52;;;18.30;78.10;;;;;;5049178;28;20362;-79
2022/07/29 01:43:19;;;;;;;4.45;1.50;;;18.30;78.40;;;;;;5065037;28;20152;-79
2022/07/29 01:45:52;;;;;;;;;;;18.30;78.60;;;;;;5085961;28;20073;-79
2022/07/29 01:48:23;;;;;;;4.53;1.50;;;18.30;79.40;;;;;;5047927;28;19988;-79
2022/07/29 01:50:53;;;;;;;6.70;1.40;;;18.30;79.10;;;;;;5062660;28;20024;-79
2022/07/29 01:53:57;;;;;;;9.20;1.40;;;18.30;77.70;;;;;;5074379;28;20119;-79
2022/07/29 01:56:25;;;;;;;4.45;1.35;;;18.20;75.00;;;;;;5030672;28;20384;-79
2022/07/29 01:58:52;;;;;;;7.72;1.58;;;18.10;74.60;;;;;;5068343;28;20059;-79
2022/07/29 02:01:21;;;;;;;6.75;1.58;;;18.10;74.80;;;;;;5063673;28;20012;-80
2022/07/29 02:03:47;;;;;;;7.15;1.40;;;18.20;75.00;;;;;;5066027;28;20036;-80
2022/07/29 02:06:18;;;;;;;7.03;1.40;;;18.20;74.90;;;;;;5058527;28;20489;-80
2022/07/29 02:08:46;;;;;;;3.03;1.42;;;18.20;74.90;;;;;;5073936;28;20397;-80
2022/07/29 02:11:11;;;;;;;8.02;1.70;;;18.20;75.00;;;;;;5059089;28;20021;-80
2022/07/29 02:13:38;;;;;;;6.05;1.88;;;18.20;75.30;;;;;;5065706;28;20369;-79
2022/07/29 02:16:06;;;;;;;11.25;1.95;;;18.20;75.00;;;;;;5065263;28;20017;-79
2022/07/29 02:18:33;;;;;;;3.88;1.40;;;18.20;74.80;;;;;;5052153;28;20036;-80
2022/07/29 02:21:00;;;;;;;7.85;1.67;;;18.20;75.00;;;;;;5056111;28;23522;-80
2022/07/29 02:23:26;;;;;;;7.70;1.60;;;18.20;75.50;;;;;;5054835;28;20025;-79
2022/07/29 02:25:54;;;;;;;5.03;1.70;;;18.20;75.30;;;;;;5057174;28;20038;-79
2022/07/29 02:28:23;;;;;;;5.80;1.20;;;18.20;75.40;;;;;;5060829;28;20085;-79
2022/07/29 02:30:51;;;;;;;5.47;1.10;;;18.10;75.80;;;;;;5048204;28;20093;-79
2022/07/29 02:33:19;;;;;;;9.35;1.60;;;18.10;76.20;;;;;;5052316;28;20028;-79
2022/07/29 02:35:46;;;;;;;5.97;1.50;;;18.10;76.20;;;;;;5075164;28;20047;-79
2022/07/29 02:41:04;;;;;;;4.90;1.65;;;18.00;77.10;;;;;;5049723;28;20035;-79
2022/07/29 02:43:31;;;;;;;7.00;1.50;;;17.90;77.70;;;;;;5054025;28;20025;-79
2022/07/29 02:45:59;;;;;;;3.35;1.40;;;17.90;77.90;;;;;;5057092;28;20025;-79
2022/07/29 02:48:36;;;;;;;6.88;1.42;;;17.90;79.50;;;;;;5055282;28;20028;-79
2022/07/29 02:51:09;;;;;;;5.88;1.48;;;17.90;80.70;;;;;;5058732;28;20031;-79
2022/07/29 02:53:38;;;;;;;4.32;1.75;;;17.90;82.60;;;;;;5051871;28;21273;-79
2022/07/29 02:56:16;;;;;;;4.40;1.60;;;17.90;82.40;;;;;;5072299;28;20032;-79
2022/07/29 02:58:48;;;;;;;3.30;1.40;;;17.80;82.80;;;;;;5050198;28;20028;-79
2022/07/29 03:01:19;;;;;;;3.03;1.10;;;17.80;83.20;;;;;;5051823;28;20021;-79
2022/07/29 03:03:48;;;;;;;4.18;1.40;;;17.80;84.70;;;;;;5059337;28;20035;-79
2022/07/29 03:06:16;;;;;;;5.47;1.52;;;17.80;85.50;;;;;;5056266;28;20087;-80
2022/07/29 03:08:43;;;;;;;4.50;1.45;;;17.80;85.70;;;;;;5046838;28;20064;-79
2022/07/29 03:11:09;;;;;;;4.18;1.45;;;17.80;86.80;;;;;;5056617;28;20024;-80
2022/07/29 03:13:36;;;;;;;4.88;1.60;;;17.80;87.90;;;;;;5083584;28;20052;-79
2022/07/29 03:16:02;;;;;;;3.65;1.30;;;17.70;88.20;;;;;;5058347;28;20630;-80
2022/07/29 03:18:28;;;;;;;5.32;1.70;;;17.70;90.10;;;;;;5051199;28;20029;-80
2022/07/29 03:20:54;;;;;;;5.82;1.42;;;17.70;90.30;;;;;;5044203;28;20049;-80
2022/07/29 03:23:22;;;;;;;4.78;1.42;;;17.70;90.50;;;;;;5049912;28;20076;-79
2022/07/29 03:25:49;;;;;;;5.25;1.40;;;17.70;90.60;;;;;;5053851;28;20033;-80
2022/07/29 03:28:14;;;;;;;4.32;1.30;;;17.70;90.70;;;;;;5045858;28;20036;-79
2022/07/29 03:30:40;;;;;;;2.60;1.30;;;17.70;90.60;;;;;;5055889;28;20603;-79
2022/07/29 03:33:06;;;;;;;3.72;1.40;;;17.70;90.60;;;;;;5061267;28;20396;-79
2022/07/29 03:35:31;;;;;;;6.13;1.50;;;17.70;90.70;;;;;;5066891;28;20032;-79
2022/07/29 03:37:58;;;;;;;7.10;1.50;;;17.70;90.70;;;;;;5065597;28;20469;-79
2022/07/29 03:40:34;;;;;;;2.70;1.35;;;17.70;90.80;;;;;;5084304;28;20028;-79
2022/07/29 03:43:01;;;;;;;3.95;1.40;;;17.70;90.80;;;;;;5066474;28;20408;-79
2022/07/29 03:45:30;;;;;;;1.75;1.20;;;17.70;91.10;;;;;;5062982;28;20093;-79
2022/07/29 03:48:01;;;;;;;3.05;1.50;;;17.60;91.40;;;;;;5055257;28;20043;-79
2022/07/29 03:50:29;;;;;;;3.33;1.50;;;17.60;91.50;;;;;;5069291;28;20037;-79
2022/07/29 03:52:55;;;;;;;6.97;1.50;;;17.60;91.80;;;;;;5057667;28;20488;-79
2022/07/29 03:55:21;;;;;;;4.10;1.42;;;17.60;91.80;;;;;;5066143;28;20037;-79
2022/07/29 03:57:49;;;;;;;3.45;1.42;;;17.60;91.60;;;;;;5062149;28;20089;-79
2022/07/29 04:00:15;;;;;;;4.47;1.40;;;17.60;91.70;;;;;;5068907;28;20036;-79
2022/07/29 04:02:46;;;;;;;5.35;1.35;;;17.60;91.40;;;;;;5062214;28;20308;-79
2022/07/29 04:05:13;;;;;;;3.65;1.50;;;17.60;91.70;;;;;;5086481;28;20511;-79
2022/07/29 04:07:39;;;;;;;5.05;1.30;;;17.60;91.40;;;;;;5070345;28;20064;-79
2022/07/29 04:10:05;;;;;;;4.55;1.40;;;17.70;91.30;;;;;;5052182;28;20090;-79
2022/07/29 04:12:31;;;;;;;3.83;1.20;;;17.70;90.90;;;;;;5049058;28;20498;-79
2022/07/29 04:14:56;;;;;;;3.75;1.27;;;17.70;90.80;;;;;;5077285;28;20028;-79
2022/07/29 04:17:22;;;;;;;5.20;1.48;;;17.70;90.80;;;;;;5059200;28;20408;-79
2022/07/29 04:19:47;;;;;;;5.88;1.70;;;17.70;90.70;;;;;;5054245;28;20031;-80
2022/07/29 04:22:13;;;;;;;5.38;1.48;;;17.70;90.80;;;;;;5077580;28;20278;-79
2022/07/29 04:24:39;;;;;;;3.38;1.42;;;17.70;91.00;;;;;;5060227;28;20033;-80
2022/07/29 04:27:04;;;;;;;5.70;1.15;;;17.70;91.00;;;;;;5063237;28;20485;-80
2022/07/29 04:29:30;;;;;;;4.00;1.33;;;17.80;91.00;;;;;;5066599;28;20503;-80
2022/07/29 04:31:55;;;;;;;5.22;1.30;;;17.80;90.80;;;;;;5068985;28;20043;-79
2022/07/29 04:34:21;;;;;;;4.35;1.30;;;17.80;90.80;;;;;;5057967;28;20523;-80
2022/07/29 04:36:46;;;;;;;4.47;1.20;;;17.80;91.00;;;;;;5059459;28;20025;-79
2022/07/29 04:39:12;;;;;;;4.95;1.38;;;17.80;90.90;;;;;;5070213;28;20032;-79
2022/07/29 04:41:38;;;;;;;6.70;1.30;;;17.90;91.10;;;;;;5081371;28;20051;-80
2022/07/29 04:44:05;;;;;;;6.53;1.40;;;17.90;91.30;;;;;;5079881;28;20109;-79
2022/07/29 04:46:31;;;;;;;4.75;1.20;;;17.90;91.20;;;;;;5052417;28;20033;-79
2022/07/29 04:48:56;;;;;;;5.60;1.52;;;18.00;91.70;;;;;;5053060;28;20029;-79
2022/07/29 04:51:22;;;;;;;4.20;1.40;;;18.00;91.80;;;;;;5061534;28;20031;-79
2022/07/29 04:53:48;;;;;;;5.47;1.52;;;18.10;91.90;;;;;;5066241;28;20020;-79
2022/07/29 04:56:13;;;;;;;6.57;1.70;;;18.00;92.30;;;;;;5081339;28;20025;-79
2022/07/29 04:58:39;;;;;;;5.65;1.60;;;18.00;92.20;;;;;;5058421;28;20107;-79
2022/07/29 05:01:05;;;;;;;3.88;1.40;;;18.00;92.30;;;;;;5067868;28;20020;-79
2022/07/29 05:03:30;;;;;;;3.28;1.33;;;18.10;92.50;;;;;;5077876;28;20034;-79
2022/07/29 05:05:56;;;;;;;5.00;1.50;;;18.10;92.90;;;;;;5053703;28;20031;-79
2022/07/29 05:08:22;;;;;;;6.50;1.80;;;;;;;;;;5058823;28;20037;-79
2022/07/29 05:10:48;;;;;;;5.30;1.67;;;;;;;;;;5047885;28;20060;-80
2022/07/29 05:13:13;;;;;;;4.43;1.60;;;18.20;98.00;;;;;;5058930;28;20327;-80
2022/07/29 05:15:39;;;;;;;4.50;1.30;;;18.20;99.90;;;;;;5074658;28;20091;-80
2022/07/29 05:18:05;;;;;;;6.72;1.17;;;18.20;98.50;;;;;;5058775;28;20079;-80
2022/07/29 05:20:31;;;;;;;5.75;1.52;;;18.10;99.40;;;;;;5054123;28;20146;-80
2022/07/29 05:22:58;;;;;;;4.75;1.60;;;18.10;98.40;;;;;;5050138;28;20416;-80
2022/07/29 05:25:24;;;;;;;4.15;1.40;;;18.10;99.10;;;;;;5073820;28;20138;-80
2022/07/29 05:27:50;;;;;;;3.15;1.35;;;18.00;93.10;;;;;;5071065;28;20040;-80
2022/07/29 05:30:16;;;;;;;6.40;1.75;;;18.00;93.20;;;;;;5051055;28;20038;-80
2022/07/29 05:32:41;;;;;;;4.65;1.20;;;18.00;93.20;;;;;;5050876;28;20079;-81
2022/07/29 05:35:07;;;;;;;4.35;1.42;;;18.00;93.40;;;;;;5054920;28;20428;-81
2022/07/29 05:37:33;;;;;;;4.80;1.30;;;18.00;93.70;;;;;;5050669;28;20040;-80
2022/07/29 05:39:59;;;;;;;5.25;1.40;;;18.00;93.90;;;;;;5052179;28;20020;-81
2022/07/29 05:42:25;;;;;;;2.42;1.30;;;17.90;93.60;;;;;;5045731;28;20266;-81
2022/07/29 05:44:51;;;;;;;6.25;1.33;;;18.00;93.80;;;;;;5055725;28;20083;-81
2022/07/29 05:47:17;;;;;;;5.90;1.80;;;18.00;93.60;;;;;;5048869;28;20056;-81
2022/07/29 05:49:43;;;;;;;4.28;1.55;;;18.00;93.70;;;;;;5057001;28;20505;-81
2022/07/29 05:52:09;;;;;;;6.22;1.50;;;18.00;94.00;;;;;;5052293;28;20028;-81
2022/07/29 05:54:35;;;;;;;6.05;1.67;;;18.10;94.00;;;;;;5053421;28;20040;-81
2022/07/29 05:57:01;;;;;;;5.35;1.55;;;18.10;94.30;;;;;;5069750;28;20492;-81
2022/07/29 05:59:27;;;;;;;6.47;1.45;;;18.10;94.20;;;;;;5060753;28;20067;-81
2022/07/29 06:01:52;;;;;;;6.90;1.50;;;18.20;94.30;;;;;;5049891;28;20708;-81
2022/07/29 06:04:18;;;;;;;4.60;1.40;;;18.20;94.70;;;;;;5061725;28;20028;-81
2022/07/29 06:06:43;;;;;;;8.82;1.38;;;18.20;94.10;;;;;;5055132;28;20113;-81
2022/07/29 06:09:09;;;;;;;3.72;1.45;;;18.30;94.20;;;;;;5052474;28;20039;-81
2022/07/29 06:11:35;;;;;;;4.80;1.60;;;18.30;93.80;;;;;;5052354;28;20052;-81
2022/07/29 06:14:02;;;;;;;5.40;1.65;;;18.30;93.30;;;;;;5061466;28;20115;-80
2022/07/29 06:16:28;;;;;;;2.72;1.20;;;18.30;93.30;;;;;;5050805;28;20025;-81
2022/07/29 06:18:53;;;;;;;6.50;1.70;;;18.30;93.60;;;;;;5052035;28;20089;-81
2022/07/29 06:21:19;;;;;;;3.72;1.23;;;18.30;93.80;;;;;;5053292;28;20033;-81
2022/07/29 06:23:45;;;;;;;3.28;1.58;;;18.30;94.00;;;;;;5062552;28;20016;-80
2022/07/29 06:26:11;;;;;;;2.75;1.40;;;18.40;95.00;;;;;;5052565;28;20431;-81
2022/07/29 06:28:36;;;;;;;3.78;1.58;;;18.40;94.70;;;;;;5076953;28;20115;-80
2022/07/29 06:31:02;;;;;;;6.32;1.98;;;18.40;94.90;;;;;;5057531;28;20099;-80
2022/07/29 06:33:28;;;;;;;4.93;1.67;;;18.40;95.60;;;;;;5079859;28;20397;-81
2022/07/29 06:35:54;;;;;;;5.75;1.77;;;18.40;95.60;;;;;;5054965;28;20560;-80
2022/07/29 06:38:20;;;;;;;7.45;1.70;;;18.50;95.70;;;;;;5073316;28;20075;-81
2022/07/29 06:41:05;;;;;;;4.45;1.67;;;18.50;96.20;;;;;;5059622;28;20049;-81
2022/07/29 06:43:37;;;;;;;2.90;1.30;;;18.60;96.90;;;;;;5047907;28;20048;-81
2022/07/29 06:46:05;;;;;;;5.15;1.90;;;18.60;97.10;;;;;;5061566;28;20032;-80
2022/07/29 06:48:31;;;;;;;5.75;1.60;;;18.70;97.50;;;;;;5063835;28;20413;-80
2022/07/29 06:50:57;;;;;;;5.57;1.48;;;18.70;97.20;;;;;;5060796;28;20033;-80
2022/07/29 06:53:22;;;;;;;3.58;1.38;;;18.70;97.10;;;;;;5053772;28;20036;-80
2022/07/29 06:55:48;;;;;;;3.90;1.50;;;18.80;97.70;;;;;;5062349;28;20119;-80
2022/07/29 06:58:15;;;;;;;3.55;1.23;;;18.80;97.80;;;;;;5057914;28;20099;-81
2022/07/29 07:00:42;;;;;;;3.53;1.50;;;18.70;98.20;;;;;;5043252;28;20032;-80
2022/07/29 07:03:07;;;;;;;3.55;1.50;;;18.70;98.50;;;;;;5052271;28;20403;-80
2022/07/29 07:05:33;;;;;;;3.75;1.30;;;18.70;98.00;;;;;;5059268;28;20025;-80
2022/07/29 07:07:59;;;;;;;3.97;1.10;;;18.70;98.30;;;;;;5052174;28;20029;-80
2022/07/29 07:10:25;;;;;;;4.68;1.50;;;18.60;99.10;;;;;;5062425;28;20039;-79
2022/07/29 07:12:51;;;;;;;2.95;1.35;;;18.60;99.90;;;;;;5062328;28;20031;-80
2022/07/29 07:15:16;;;;;;;3.30;1.20;;;18.50;99.90;;;;;;5058092;28;20115;-79
2022/07/29 07:17:42;;;;;;;5.03;1.55;;;18.40;99.90;;;;;;5064222;28;20104;-79
2022/07/29 07:20:08;;;;;;;4.05;1.40;;;18.30;99.90;;;;;;5054371;28;20029;-79
2022/07/29 07:22:34;;;;;;;3.78;1.30;;;18.20;99.90;;;;;;5070545;28;20028;-79
2022/07/29 07:25:00;;;;;;;2.75;1.30;;;18.20;99.90;;;;;;5060233;28;20449;-78
2022/07/29 07:27:27;;;;;;;3.10;1.40;;;18.10;99.90;;;;;;5062669;28;20116;-78
2022/07/29 07:29:52;;;;;;;4.13;1.55;;;18.10;99.90;;;;;;5074680;28;20036;-78
2022/07/29 07:32:18;;;;;;;5.43;1.48;;;18.00;99.90;;;;;;5063038;28;20032;-74
2022/07/29 07:34:43;;;;;;;6.97;1.88;;;18.10;99.90;;;;;;5058228;28;20081;-74
2022/07/29 07:37:09;;;;;;;4.45;1.60;;;17.90;99.90;;;;;;5065952;28;20063;-74
2022/07/29 07:39:35;;;;;;;8.27;1.60;;;17.80;99.90;;;;;;5060508;28;20025;-74
2022/07/29 07:42:01;;;;;;;3.05;1.50;;;17.70;99.90;;;;;;5068166;28;20025;-74
2022/07/29 07:44:27;;;;;;;3.92;1.77;;;17.70;99.90;;;;;;5065326;28;20043;-74
2022/07/29 07:46:52;;;;;;;8.23;2.03;;;17.60;99.90;;;;;;5059239;28;20036;-74
2022/07/29 07:49:18;;;;;;;6.00;2.00;;;17.60;99.90;;;;;;5066815;28;20544;-74
2022/07/29 07:51:44;;;;;;;9.30;2.30;;;17.40;99.90;;;;;;5055785;28;20284;-74
2022/07/29 07:54:09;;;;;;;7.03;2.10;;;17.30;99.90;;;;;;5068985;28;20359;-73
2022/07/29 07:56:35;;;;;;;8.73;2.35;;;17.20;99.90;;;;;;5065887;28;20393;-72
2022/07/29 07:59:01;;;;;;;4.65;2.20;;;17.10;99.90;;;;;;5064609;28;20029;-72
2022/07/29 08:01:26;;;;;;;10.68;2.53;;;17.10;99.90;;;;;;5050563;28;20040;-73
2022/07/29 08:03:52;;;;;;;7.18;2.20;;;17.10;99.90;;;;;;5064520;28;20039;-73
2022/07/29 08:06:17;;;;;;;9.25;2.45;;;17.00;99.90;;;;;;5074885;28;20172;-72
2022/07/29 08:08:43;;;;;;;6.65;2.30;;;16.90;99.90;;;;;;5055287;28;20037;-73
2022/07/29 08:11:09;;;;;;;6.53;2.30;;;16.90;99.90;;;;;;5061699;28;20120;-73
2022/07/29 08:13:35;;;;;;;8.82;2.70;;;16.90;99.90;;;;;;5055824;28;20043;-73
2022/07/29 08:16:01;;;;;;;12.57;3.20;;;16.80;99.90;;;;;;5075775;28;20024;-73
2022/07/29 08:18:31;;;;;;;9.68;2.92;;;16.90;99.90;;;;;;5057923;28;20439;-74
2022/07/29 08:20:57;;;;;;;8.82;2.92;;;16.80;99.90;;;;;;5060261;28;20024;-74
2022/07/29 08:23:23;;;;;;;10.00;2.72;;;16.80;99.90;;;;;;5069209;28;20092;-73
2022/07/29 08:25:49;;;;;;;11.60;2.92;;;16.90;99.90;;;;;;5054378;28;20111;-73
2022/07/29 08:28:15;;;;;;;6.97;2.75;;;17.00;99.90;;;;;;5048965;28;20057;-73
2022/07/29 08:30:41;;;;;;;5.18;2.50;;;17.10;99.90;;;;;;5053482;28;20052;-73
2022/07/29 08:33:07;;;;;;;8.20;2.80;;;17.10;99.90;;;;;;5057853;28;20033;-73
2022/07/29 08:35:32;;;;;;;11.20;2.75;;;17.20;99.90;;;;;;5049828;28;20035;-73
2022/07/29 08:37:58;;;;;;;7.00;2.72;;;17.40;99.90;;;;;;5066585;28;20048;-74
2022/07/29 08:40:24;;;;;;;7.03;2.72;;;17.50;99.90;;;;;;5068545;28;20601;-73
2022/07/29 08:42:50;;;;;;;7.72;2.70;;;17.80;99.90;;;;;;5053350;28;20033;-74
2022/07/29 08:45:16;;;;;;;8.27;2.92;;;18.10;99.90;;;;;;5064176;28;20029;-73
2022/07/29 08:47:44;;;;;;;8.95;2.83;;;18.20;99.90;;;;;;5066745;28;20726;-74
2022/07/29 08:50:11;;;;;;;9.50;2.35;;;18.50;99.90;;;;;;5069123;28;20380;-74
2022/07/29 08:52:40;;;;;;;8.55;2.50;;;18.70;99.90;;;;;;5057764;28;20029;-74
2022/07/29 08:55:08;;;;;;;9.55;2.35;;;18.80;99.90;;;;;;5048083;28;20087;-74
2022/07/29 08:57:35;;;;;;;9.80;2.50;;;18.90;99.90;;;;;;5049784;28;20056;-74
2022/07/29 09:00:03;;;;;;;8.15;2.70;;;18.90;99.90;;;;;;5054873;28;20325;-75
2022/07/29 09:02:35;;;;;;;10.40;2.70;;;18.90;99.90;;;;;;5073901;28;20052;-74
2022/07/29 09:05:02;;;;;;;6.65;2.55;;;19.00;99.90;;;;;;5058736;28;20025;-74
2022/07/29 09:07:28;;;;;;;7.90;2.25;;;19.00;99.90;;;;;;5049757;28;20037;-75
2022/07/29 09:09:54;;;;;;;7.55;2.55;;;19.00;99.90;;;;;;5046992;28;20039;-74
2022/07/29 09:12:22;;;;;;;7.18;2.65;;;19.10;99.90;;;;;;4355640;28;10000788;-73
2022/07/29 09:14:47;;;;;;;9.20;2.60;;;19.20;99.90;;;;;;5049816;28;20067;-74
2022/07/29 09:17:16;;;;;;;7.43;2.40;;;19.30;99.90;;;;;;5058816;28;20105;-73
2022/07/29 09:19:42;;;;;;;6.00;2.30;;;19.40;99.90;;;;;;5058683;28;20103;-73
2022/07/29 09:22:09;;;;;;;8.45;2.60;;;19.40;99.90;;;;;;5048124;28;20230;-73
2022/07/29 09:24:42;;;;;;;10.93;2.63;;;19.50;99.90;;;;;;5044071;28;20488;-73
2022/07/29 09:27:23;;;;;;;8.38;2.42;;;19.60;99.90;;;;;;5058216;28;20032;-73
2022/07/29 09:30:00;;;;;;;6.40;2.30;;;19.70;99.90;;;;;;5061339;28;20055;-73
2022/07/29 09:32:27;;;;;;;8.93;2.30;;;19.80;99.90;;;;;;5052450;28;20064;-73
2022/07/29 09:35:18;;;;;;;7.18;2.40;;;19.90;99.90;;;;;;5053751;28;20031;-73
2022/07/29 09:37:44;;;;;;;8.35;2.10;;;20.00;99.90;;;;;;5082099;28;20482;-73
2022/07/29 09:40:20;;;;;;;6.35;2.22;;;20.20;99.90;;;;;;5069313;28;20243;-73
2022/07/29 09:42:46;;;;;;;11.57;2.60;;;20.30;99.90;;;;;;5062107;28;20516;-73
2022/07/29 09:45:13;;;;;;;8.95;2.20;;;20.30;99.90;;;;;;5063816;28;20279;-72
2022/07/29 09:47:48;;;;;;;5.93;2.00;;;20.30;99.90;;;;;;5077420;28;20385;-72
2022/07/29 09:50:15;;;;;;;7.38;1.70;;;20.50;99.90;;;;;;5062018;28;20369;-73
2022/07/29 09:52:53;;;;;;;6.10;2.33;;;20.80;99.90;;;;;;5053999;28;20025;-73
2022/07/29 09:55:19;;;;;;;5.80;2.28;;;21.10;99.70;;;;;;5077943;28;20028;-73
2022/07/29 09:57:46;;;;;;;3.50;1.80;;;21.30;98.70;;;;;;5065357;28;20671;-73
2022/07/29 10:00:17;;;;;;;5.95;2.15;;;21.50;99.70;;;;;;5057374;28;20031;-72
2022/07/29 10:02:44;;;;;;;6.85;1.90;;;21.80;98.90;;;;;;5051438;28;20122;-72
2022/07/29 10:05:28;;;;;;;5.50;1.98;;;21.90;97.50;;;;;;5052911;28;20017;-72
2022/07/29 10:07:57;;;;;;;3.78;1.63;;;22.10;97.40;;;;;;5050780;28;20273;-72
2022/07/29 10:10:31;;;;;;;6.93;1.95;;;22.20;98.10;;;;;;5042267;28;20029;-71
2022/07/29 10:13:02;;;;;;;7.47;1.73;;;22.40;97.20;;;;;;5063277;28;20042;-72
2022/07/29 10:15:31;;;;;;;5.03;2.05;;;22.60;95.80;;;;;;5049515;28;20037;-72
2022/07/29 10:17:58;;;;;;;6.32;2.17;;;23.00;95.30;;;;;;5051555;28;20363;-72
2022/07/29 10:20:25;;;;;;;4.70;1.95;;;23.30;94.50;;;;;;5055811;28;20432;-71
2022/07/29 10:22:51;;;;;;;5.53;1.95;;;23.40;92.80;;;;;;5057840;28;20028;-71
2022/07/29 10:25:18;;;;;;;4.38;1.80;;;23.60;92.90;;;;;;5046831;28;20394;-70
2022/07/29 10:27:45;;;;;;;3.38;1.58;;;23.70;93.10;;;;;;5061703;28;20056;-70
2022/07/29 10:30:12;;;;;;;6.72;2.08;;;23.80;93.50;;;;;;5059930;28;20043;-70
2022/07/29 10:32:49;;;;;;;6.78;2.13;;;23.90;92.90;;;;;;5066864;28;20025;-70
2022/07/29 10:35:20;;;;;;;3.42;1.65;;;23.90;91.20;;;;;;5044310;28;20148;-70
2022/07/29 10:38:14;;;;;;;4.88;2.05;;;24.00;91.60;;;;;;5052435;28;20796;-70
2022/07/29 10:44:09;;;;;;;6.05;1.70;;;24.20;91.30;;;;;;4996306;28;20042;-71
2022/07/29 10:46:36;;;;;;;5.38;1.92;;;24.40;90.70;;;;;;5003789;28;20033;-70
2022/07/29 10:49:06;;;;;;;7.32;1.90;;;24.40;90.00;;;;;;5022043;28;20075;-71
2022/07/29 10:51:50;;;;;;;7.72;2.17;;;24.40;89.20;;;;;;5055717;28;20243;-71
2022/07/29 10:54:35;;;;;;;3.50;1.60;;;24.50;89.30;;;;;;5052682;28;20032;-71
2022/07/29 10:57:13;;;;;;;3.67;1.70;;;24.70;88.40;;;;;;5064807;28;20035;-70
2022/07/29 10:59:39;;;;;;;8.15;1.88;;;24.70;88.90;;;;;;5049364;28;20032;-71
2022/07/29 11:02:33;;;;;;;5.07;1.88;;;24.60;88.40;;;;;;5051225;28;20035;-71
2022/07/29 11:05:03;;;;;;;7.63;2.30;;;24.50;88.90;;;;;;5044228;28;20111;-70
2022/07/29 11:07:29;;;;;;;8.52;2.03;;;24.40;88.90;;;;;;5047890;28;20037;-71
2022/07/29 11:10:13;;;;;;;7.03;1.90;;;24.30;88.50;;;;;;5044251;28;20562;-72
2022/07/29 11:12:42;;;;;;;6.82;2.17;;;24.30;88.50;;;;;;5044044;28;20370;-73
2022/07/29 11:15:21;;;;;;;8.23;2.15;;;24.40;90.20;;;;;;5061957;28;20527;-72
2022/07/29 11:18:00;;;;;;;3.55;1.63;;;24.60;89.50;;;;;;5042692;28;20025;-72
2022/07/29 11:20:41;;;;;;;6.10;2.00;;;24.80;89.50;;;;;;5050450;28;20029;-72
2022/07/29 11:23:26;;;;;;;4.72;1.73;;;25.00;86.80;;;;;;5042734;28;20028;-71
2022/07/29 11:26:09;;;;;;;3.38;1.90;;;25.30;86.00;;;;;;5054809;28;20075;-72
2022/07/29 11:28:55;;;;;;;5.55;2.20;;;25.40;84.80;;;;;;5056538;28;20112;-71
2022/07/29 11:31:34;;;;;;;5.93;2.00;;;25.50;83.60;;;;;;5054722;28;20543;-72
2022/07/29 11:34:32;;;;;;;8.50;2.40;;;25.60;83.60;;;;;;5061850;28;20029;-72
2022/07/29 11:37:07;;;;;;;4.70;1.80;;;25.60;83.10;;;;;;5061802;28;20041;-72
2022/07/29 11:39:34;;;;;;;7.65;1.95;;;25.70;83.70;;;;;;5044482;28;20469;-73
2022/07/29 11:42:24;;;;;;;5.90;2.03;;;25.80;83.20;;;;;;5050877;28;20040;-71
2022/07/29 11:45:16;;;;;;;3.92;1.90;;;25.70;82.30;;;;;;5059725;28;20037;-71
2022/07/29 11:47:54;;;;;;;7.00;1.70;;;25.60;82.50;;;;;;5043451;28;20049;-71
2022/07/29 11:50:36;;;;;;;4.22;1.63;;;25.80;82.20;;;;;;5065869;28;20032;-71
2022/07/29 11:53:09;;;;;;;7.05;1.95;;;25.90;81.20;;;;;;5062985;28;20112;-71
2022/07/29 11:55:38;;;;;;;3.33;1.70;;;25.90;82.00;;;;;;5053219;28;20155;-72
2022/07/29 11:58:03;;;;;;;6.40;2.20;;;25.90;80.40;;;;;;5043130;28;20489;-72
2022/07/29 12:00:38;;;;;;;7.03;1.83;;;26.00;80.00;;;;;;5054585;28;20025;-72
2022/07/29 12:03:07;;;;;;;6.32;1.90;;;26.10;80.20;;;;;;5042886;28;20295;-72
2022/07/29 12:05:39;;;;;;;5.68;1.75;;;26.10;79.60;;;;;;5065912;28;20085;-72
2022/07/29 12:08:25;;;;;;;5.10;2.03;;;26.20;79.60;;;;;;5042108;28;20029;-72
2022/07/29 12:10:51;;;;;;;7.22;2.00;;;26.40;77.60;;;;;;5042912;28;20315;-72
2022/07/29 12:13:20;;;;;;;6.18;1.92;;;26.40;76.90;;;;;;5040258;28;20401;-72
2022/07/29 12:15:57;;;;;;;5.13;2.15;;;26.30;76.20;;;;;;5049451;28;20052;-73
2022/07/29 12:18:23;;;;;;;9.75;1.77;;;26.20;75.60;;;;;;5043231;28;20253;-72
2022/07/29 12:20:55;;;;;;;8.80;2.15;;;26.30;75.40;;;;;;5050977;28;20032;-72
2022/07/29 12:23:21;;;;;;;4.43;1.73;;;26.40;74.70;;;;;;5061335;28;20068;-72
2022/07/29 12:25:47;;;;;;;5.63;2.00;;;26.30;74.20;;;;;;5064232;28;20507;-71
2022/07/29 12:28:18;;;;;;;6.47;1.90;;;26.40;73.40;;;;;;5060456;28;20559;-72
2022/07/29 12:30:49;;;;;;;7.55;1.85;;;26.60;82.20;;;;;;5053680;28;20040;-72
2022/07/29 12:33:18;;;;;;;4.95;1.98;;;26.70;82.50;;;;;;5054076;28;20033;-73
2022/07/29 12:35:50;;;;;;;5.50;1.90;;;26.90;83.00;;;;;;5057681;28;20374;-72
2022/07/29 12:38:16;;;;;;;2.93;1.60;;;27.10;92.90;;;;;;5051387;28;20041;-72
2022/07/29 12:40:43;;;;;;;3.50;1.65;;;27.30;93.90;;;;;;5050570;28;20328;-72
2022/07/29 12:43:12;;;;;;;4.25;1.80;;;27.50;90.70;;;;;;5048893;28;20021;-72
2022/07/29 12:45:39;;;;;;;5.13;1.77;;;27.60;67.90;;;;;;5045011;28;20610;-73
2022/07/29 12:48:08;;;;;;;3.17;1.95;;;27.60;67.20;;;;;;5048913;28;20020;-73
2022/07/29 12:50:34;;;;;;;3.55;1.80;;;27.50;67.60;;;;;;5054288;28;20032;-73
2022/07/29 12:53:11;;;;;;;5.55;1.70;;;27.60;68.00;;;;;;5047282;28;20095;-72
2022/07/29 12:55:48;;;;;;;4.18;1.85;;;27.50;66.30;;;;;;5045268;28;20044;-72
2022/07/29 12:58:26;;;;;;;7.20;2.08;;;27.30;65.60;;;;;;5051565;28;20432;-72
2022/07/29 13:01:00;;;;;;;3.08;1.90;;;27.30;67.10;;;;;;5055974;28;20032;-72
2022/07/29 13:03:26;;;;;;;6.68;2.00;;;27.20;65.90;;;;;;5049248;28;20500;-72
2022/07/29 13:05:52;;;;;;;5.00;1.98;;;27.20;67.60;;;;;;5046539;28;20040;-73